Time,TemperatureF,DewpointF,PressureIn,WindDirection,WindDirectionDegrees,WindSpeedMPH,WindSpeedGustMPH,Humidity,HourlyPrecipIn,Conditions,Clouds,dailyrainin,SoftwareType,DateUTC
2013-01-08 00:02:00,48.0,45.0,30.23,West,266,2.0,7.0,90,0.00,,,0.00,,2013-01-08 00:02:00,
2013-01-08 00:12:00,48.0,45.0,30.23,West,266,2.0,7.0,90,0.00,,,0.00,,2013-01-08 00:12:00,
2013-01-08 00:22:00,48.0,45.0,30.23,WNW,283,4.0,12.0,90,0.00,,,0.00,,2013-01-08 00:22:00,
2013-01-08 00:32:00,48.0,45.0,30.22,West,281,5.0,9.0,90,0.00,,,0.00,,2013-01-08 00:32:00,
2013-01-08 00:42:00,48.0,45.0,30.22,West,281,5.0,9.0,90,0.00,,,0.00,,2013-01-08 00:42:00,
2013-01-08 00:52:00,48.0,46.0,30.23,WSW,254,3.0,7.0,92,0.00,,,0.00,,2013-01-08 00:52:00,
2013-01-08 01:02:00,48.0,46.0,30.23,West,267,5.0,8.0,92,0.00,,,0.00,,2013-01-08 01:02:00,
2013-01-08 01:11:00,48.0,46.0,30.23,West,267,5.0,8.0,92,0.00,,,0.00,,2013-01-08 01:11:00,
2013-01-08 01:22:00,48.0,45.0,30.23,WNW,285,3.0,8.0,90,0.00,,,0.00,,2013-01-08 01:22:00,
2013-01-08 01:32:00,48.0,45.0,30.22,West,273,5.0,8.0,90,0.00,,,0.00,,2013-01-08 01:32:00,
2013-01-08 01:42:00,48.0,45.0,30.22,West,273,5.0,8.0,90,0.00,,,0.00,,2013-01-08 01:42:00,
2013-01-08 01:52:00,48.0,45.0,30.22,West,273,5.0,8.0,90,0.00,,,0.00,,2013-01-08 01:52:00,
2013-01-08 02:02:00,48.0,45.0,30.22,WNW,292,5.0,9.0,90,0.00,,,0.00,,2013-01-08 02:02:00,
2013-01-08 02:12:00,48.0,45.0,30.22,WNW,292,5.0,9.0,90,0.00,,,0.00,,2013-01-08 02:12:00,
2013-01-08 02:22:00,48.0,45.0,30.22,WSW,258,5.0,10.0,90,0.00,,,0.00,,2013-01-08 02:22:00,
2013-01-08 02:32:00,48.0,45.0,30.22,WNW,289,5.0,12.0,91,0.00,,,0.00,,2013-01-08 02:32:00,
2013-01-08 02:42:00,48.0,45.0,30.22,WNW,289,5.0,12.0,91,0.00,,,0.00,,2013-01-08 02:42:00,
2013-01-08 02:53:00,48.0,45.0,30.22,WNW,295,5.0,8.0,90,0.00,,,0.00,,2013-01-08 02:53:00,
2013-01-08 03:02:00,48.0,45.0,30.22,WNW,291,3.0,7.0,90,0.00,,,0.00,,2013-01-08 03:02:00,
2013-01-08 03:12:00,48.0,45.0,30.22,WNW,291,3.0,7.0,90,0.00,,,0.00,,2013-01-08 03:12:00,
2013-01-08 03:22:00,49.0,46.0,30.22,West,274,6.0,9.0,90,0.00,,,0.00,,2013-01-08 03:22:00,
2013-01-08 03:32:00,49.0,46.0,30.22,West,274,6.0,9.0,90,0.00,,,0.00,,2013-01-08 03:32:00,
2013-01-08 03:42:00,49.0,46.0,30.22,West,274,6.0,9.0,90,0.00,,,0.00,,2013-01-08 03:42:00,
2013-01-08 03:53:00,49.0,46.0,30.22,West,281,3.0,8.0,89,0.00,,,0.00,,2013-01-08 03:53:00,
2013-01-08 04:02:00,49.0,46.0,30.21,West,278,3.0,6.0,89,0.00,,,0.00,,2013-01-08 04:02:00,
2013-01-08 04:12:00,49.0,46.0,30.21,West,278,3.0,6.0,89,0.00,,,0.00,,2013-01-08 04:12:00,
2013-01-08 04:22:00,49.0,46.0,30.21,WNW,294,3.0,8.0,89,0.00,,,0.00,,2013-01-08 04:22:00,
2013-01-08 04:32:00,49.0,46.0,30.21,West,268,3.0,7.0,89,0.00,,,0.00,,2013-01-08 04:32:00,
2013-01-08 04:42:00,49.0,46.0,30.21,West,268,3.0,7.0,89,0.00,,,0.00,,2013-01-08 04:42:00,
2013-01-08 04:52:00,49.0,46.0,30.21,WNW,287,8.0,15.0,88,0.00,,,0.00,,2013-01-08 04:52:00,
2013-01-08 05:03:00,49.0,46.0,30.21,West,277,5.0,13.0,88,0.00,,,0.00,,2013-01-08 05:03:00,
2013-01-08 05:12:00,49.0,46.0,30.21,West,277,5.0,13.0,88,0.00,,,0.00,,2013-01-08 05:12:00,
2013-01-08 05:22:00,49.0,46.0,30.21,West,269,5.0,9.0,88,0.00,,,0.00,,2013-01-08 05:22:00,
2013-01-08 05:32:00,49.0,46.0,30.21,West,276,3.0,8.0,88,0.00,,,0.00,,2013-01-08 05:32:00,
2013-01-08 05:42:00,49.0,46.0,30.21,West,276,3.0,8.0,88,0.00,,,0.00,,2013-01-08 05:42:00,
2013-01-08 05:53:00,49.0,46.0,30.21,WNW,287,5.0,7.0,88,0.00,,,0.00,,2013-01-08 05:53:00,
2013-01-08 06:02:00,49.0,46.0,30.20,WSW,257,6.0,10.0,88,0.00,,,0.00,,2013-01-08 06:02:00,
2013-01-08 06:11:00,49.0,46.0,30.20,WSW,257,6.0,10.0,88,0.00,,,0.00,,2013-01-08 06:11:00,
2013-01-08 06:22:00,49.0,46.0,30.21,West,259,2.0,7.0,88,0.00,,,0.00,,2013-01-08 06:22:00,
2013-01-08 06:32:00,49.0,46.0,30.21,West,259,2.0,7.0,88,0.00,,,0.00,,2013-01-08 06:32:00,
2013-01-08 06:42:00,49.0,46.0,30.21,West,259,2.0,7.0,88,0.00,,,0.00,,2013-01-08 06:42:00,
2013-01-08 06:52:00,49.0,46.0,30.22,WNW,285,4.0,7.0,88,0.00,,,0.00,,2013-01-08 06:52:00,
2013-01-08 07:02:00,49.0,46.0,30.22,West,276,6.0,10.0,88,0.00,,,0.00,,2013-01-08 07:02:00,
2013-01-08 07:11:00,49.0,46.0,30.22,West,276,6.0,10.0,88,0.00,,,0.00,,2013-01-08 07:11:00,
2013-01-08 07:22:00,49.0,45.0,30.21,WSW,250,5.0,9.0,87,0.00,,,0.00,,2013-01-08 07:22:00,
2013-01-08 07:32:00,49.0,46.0,30.21,WNW,285,5.0,10.0,88,0.00,,,0.00,,2013-01-08 07:32:00,
2013-01-08 07:42:00,49.0,46.0,30.21,WNW,285,5.0,10.0,88,0.00,,,0.00,,2013-01-08 07:42:00,
2013-01-08 07:52:00,48.0,45.0,30.21,West,279,5.0,8.0,88,0.00,,,0.00,,2013-01-08 07:52:00,
2013-01-08 08:01:00,48.0,45.0,30.22,WSW,252,5.0,9.0,89,0.00,,,0.00,,2013-01-08 08:01:00,
2013-01-08 08:11:00,48.0,45.0,30.22,WSW,252,5.0,9.0,89,0.00,,,0.00,,2013-01-08 08:11:00,
2013-01-08 08:22:00,47.0,44.0,30.22,WNW,288,4.0,9.0,90,0.00,,,0.00,,2013-01-08 08:22:00,
2013-01-08 08:32:00,47.0,44.0,30.22,WNW,288,4.0,9.0,90,0.00,,,0.00,,2013-01-08 08:32:00,
2013-01-08 08:42:00,47.0,44.0,30.22,WNW,288,4.0,9.0,90,0.00,,,0.00,,2013-01-08 08:42:00,
2013-01-08 08:52:00,48.0,45.0,30.23,WNW,295,5.0,12.0,91,0.00,,,0.00,,2013-01-08 08:52:00,
2013-01-08 09:02:00,48.0,45.0,30.23,WNW,296,5.0,12.0,91,0.00,,,0.00,,2013-01-08 09:02:00,
2013-01-08 09:12:00,48.0,45.0,30.23,WNW,296,5.0,12.0,91,0.00,,,0.00,,2013-01-08 09:12:00,
2013-01-08 09:22:00,48.0,45.0,30.24,WSW,258,3.0,7.0,91,0.00,,,0.00,,2013-01-08 09:22:00,
2013-01-08 09:32:00,49.0,46.0,30.24,WNW,291,7.0,12.0,90,0.00,,,0.00,,2013-01-08 09:32:00,
2013-01-08 09:42:00,49.0,46.0,30.24,WNW,291,7.0,12.0,90,0.00,,,0.00,,2013-01-08 09:42:00,
2013-01-08 09:52:00,49.0,46.0,30.24,WNW,292,1.0,6.0,90,0.00,,,0.00,,2013-01-08 09:52:00,
2013-01-08 10:02:00,49.0,46.0,30.24,WNW,301,5.0,9.0,90,0.00,,,0.00,,2013-01-08 10:02:00,
2013-01-08 10:12:00,49.0,46.0,30.24,WNW,301,5.0,9.0,90,0.00,,,0.00,,2013-01-08 10:12:00,
2013-01-08 10:22:00,49.0,46.0,30.24,WNW,289,2.0,6.0,89,0.00,,,0.00,,2013-01-08 10:22:00,
2013-01-08 10:32:00,49.0,46.0,30.24,NW,305,4.0,8.0,89,0.00,,,0.00,,2013-01-08 10:32:00,
2013-01-08 10:42:00,49.0,46.0,30.24,NW,305,4.0,8.0,89,0.00,,,0.00,,2013-01-08 10:42:00,
2013-01-08 10:52:00,50.0,47.0,30.25,West,280,5.0,8.0,89,0.00,,,0.00,,2013-01-08 10:52:00,
2013-01-08 11:02:00,50.0,47.0,30.24,West,267,6.0,10.0,89,0.00,,,0.00,,2013-01-08 11:02:00,
2013-01-08 11:11:00,50.0,47.0,30.24,West,267,6.0,10.0,89,0.00,,,0.00,,2013-01-08 11:11:00,
2013-01-08 11:22:00,51.0,48.0,30.24,WNW,287,5.0,12.0,88,0.00,,,0.00,,2013-01-08 11:22:00,
2013-01-08 11:32:00,51.0,48.0,30.24,WNW,287,5.0,12.0,88,0.00,,,0.00,,2013-01-08 11:32:00,
2013-01-08 11:42:00,51.0,48.0,30.24,WNW,287,5.0,12.0,88,0.00,,,0.00,,2013-01-08 11:42:00,
2013-01-08 11:53:00,52.0,48.0,30.23,West,267,8.0,12.0,85,0.00,,,0.00,,2013-01-08 11:53:00,
2013-01-08 12:02:00,52.0,48.0,30.22,NW,318,8.0,13.0,86,0.00,,,0.00,,2013-01-08 12:02:00,
2013-01-08 12:12:00,52.0,48.0,30.22,NW,318,8.0,13.0,86,0.00,,,0.00,,2013-01-08 12:12:00,
2013-01-08 12:22:00,52.0,48.0,30.22,NW,318,8.0,13.0,86,0.00,,,0.00,,2013-01-08 12:22:00,
2013-01-08 12:32:00,52.0,47.0,30.22,West,269,7.0,12.0,84,0.00,,,0.00,,2013-01-08 12:32:00,
2013-01-08 12:42:00,52.0,47.0,30.22,West,269,7.0,12.0,84,0.00,,,0.00,,2013-01-08 12:42:00,
2013-01-08 12:53:00,53.0,48.0,30.22,West,269,10.0,16.0,83,0.00,,,0.00,,2013-01-08 12:53:00,
2013-01-08 13:02:00,52.0,47.0,30.22,NW,320,8.0,20.0,82,0.00,,,0.00,,2013-01-08 13:02:00,
2013-01-08 13:12:00,52.0,47.0,30.22,NW,320,8.0,20.0,82,0.00,,,0.00,,2013-01-08 13:12:00,
2013-01-08 13:22:00,52.0,47.0,30.22,West,275,3.0,13.0,84,0.00,,,0.00,,2013-01-08 13:22:00,
2013-01-08 13:32:00,52.0,47.0,30.22,West,275,3.0,13.0,84,0.00,,,0.00,,2013-01-08 13:32:00,
2013-01-08 13:42:00,52.0,47.0,30.22,West,275,3.0,13.0,84,0.00,,,0.00,,2013-01-08 13:42:00,
2013-01-08 13:53:00,52.0,47.0,30.21,WNW,289,8.0,13.0,84,0.00,,,0.00,,2013-01-08 13:53:00,
2013-01-08 14:02:00,52.0,48.0,30.21,WNW,288,2.0,9.0,85,0.00,,,0.00,,2013-01-08 14:02:00,
2013-01-08 14:12:00,52.0,48.0,30.21,WNW,288,2.0,9.0,85,0.00,,,0.00,,2013-01-08 14:12:00,
2013-01-08 14:22:00,52.0,48.0,30.21,West,267,6.0,13.0,85,0.00,,,0.00,,2013-01-08 14:22:00,
2013-01-08 14:32:00,52.0,48.0,30.21,WSW,237,8.0,14.0,85,0.00,,,0.00,,2013-01-08 14:32:00,
2013-01-08 14:42:00,52.0,48.0,30.21,WSW,237,8.0,14.0,85,0.00,,,0.00,,2013-01-08 14:42:00,
2013-01-08 14:53:00,52.0,48.0,30.21,WNW,288,9.0,12.0,85,0.00,,,0.00,,2013-01-08 14:53:00,
2013-01-08 15:02:00,52.0,48.0,30.20,West,266,5.0,10.0,85,0.00,,,0.00,,2013-01-08 15:02:00,
2013-01-08 15:12:00,52.0,48.0,30.20,West,266,5.0,10.0,85,0.00,,,0.00,,2013-01-08 15:12:00,
2013-01-08 15:22:00,52.0,48.0,30.20,WNW,296,7.0,12.0,85,0.00,,,0.00,,2013-01-08 15:22:00,
2013-01-08 15:32:00,52.0,48.0,30.20,West,276,6.0,13.0,86,0.00,,,0.00,,2013-01-08 15:32:00,
2013-01-08 15:42:00,52.0,48.0,30.20,West,276,6.0,13.0,86,0.00,,,0.00,,2013-01-08 15:42:00,
2013-01-08 15:53:00,52.0,48.0,30.20,West,276,6.0,13.0,86,0.00,,,0.00,,2013-01-08 15:53:00,
2013-01-08 16:02:00,51.0,47.0,30.20,WNW,288,3.0,9.0,86,0.00,,,0.00,,2013-01-08 16:02:00,
2013-01-08 16:12:00,51.0,47.0,30.20,WNW,288,3.0,9.0,86,0.00,,,0.00,,2013-01-08 16:12:00,
2013-01-08 16:22:00,51.0,47.0,30.20,WNW,282,3.0,7.0,87,0.00,,,0.00,,2013-01-08 16:22:00,
2013-01-08 16:33:00,51.0,47.0,30.20,WNW,285,3.0,7.0,87,0.00,,,0.00,,2013-01-08 16:33:00,
2013-01-08 16:42:00,51.0,47.0,30.20,WNW,285,3.0,7.0,87,0.00,,,0.00,,2013-01-08 16:42:00,
2013-01-08 16:52:00,51.0,47.0,30.20,West,275,4.0,12.0,87,0.00,,,0.00,,2013-01-08 16:52:00,
2013-01-08 17:02:00,51.0,47.0,30.20,WNW,289,6.0,9.0,87,0.00,,,0.00,,2013-01-08 17:02:00,
2013-01-08 17:12:00,51.0,47.0,30.20,WNW,289,6.0,9.0,87,0.00,,,0.00,,2013-01-08 17:12:00,
2013-01-08 17:22:00,51.0,48.0,30.20,WSW,252,5.0,10.0,88,0.00,,,0.00,,2013-01-08 17:22:00,
2013-01-08 17:33:00,51.0,48.0,30.20,WSW,252,5.0,10.0,88,0.00,,,0.00,,2013-01-08 17:33:00,
2013-01-08 17:42:00,51.0,48.0,30.20,WSW,252,5.0,10.0,88,0.00,,,0.00,,2013-01-08 17:42:00,
2013-01-08 17:53:00,51.0,48.0,30.19,West,262,7.0,13.0,88,0.00,,,0.00,,2013-01-08 17:53:00,
2013-01-08 18:03:00,51.0,48.0,30.19,WNW,291,6.0,15.0,89,0.00,,,0.00,,2013-01-08 18:03:00,
2013-01-08 18:12:00,51.0,48.0,30.19,WNW,291,6.0,15.0,89,0.00,,,0.00,,2013-01-08 18:12:00,
2013-01-08 18:22:00,51.0,48.0,30.20,West,265,6.0,10.0,89,0.00,,,0.00,,2013-01-08 18:22:00,
2013-01-08 18:33:00,51.0,48.0,30.20,NW,307,3.0,13.0,89,0.00,,,0.00,,2013-01-08 18:33:00,
2013-01-08 18:43:00,51.0,48.0,30.20,NW,307,3.0,13.0,89,0.00,,,0.00,,2013-01-08 18:43:00,
2013-01-08 18:53:00,51.0,48.0,30.20,WNW,302,6.0,16.0,90,0.00,,,0.00,,2013-01-08 18:53:00,
2013-01-08 19:02:00,51.0,48.0,30.20,WNW,291,6.0,10.0,90,0.00,,,0.00,,2013-01-08 19:02:00,
2013-01-08 19:11:00,51.0,48.0,30.20,WNW,291,6.0,10.0,90,0.00,,,0.00,,2013-01-08 19:11:00,
2013-01-08 19:22:00,51.0,48.0,30.20,NW,314,6.0,10.0,90,0.00,,,0.00,,2013-01-08 19:22:00,
2013-01-08 19:32:00,51.0,48.0,30.20,NW,312,6.0,10.0,90,0.00,,,0.00,,2013-01-08 19:32:00,
2013-01-08 19:42:00,51.0,48.0,30.20,NW,312,6.0,10.0,90,0.00,,,0.00,,2013-01-08 19:42:00,
2013-01-08 19:53:00,51.0,48.0,30.19,WNW,287,8.0,12.0,90,0.00,,,0.00,,2013-01-08 19:53:00,
2013-01-08 20:02:00,51.0,48.0,30.19,West,271,7.0,10.0,90,0.00,,,0.00,,2013-01-08 20:02:00,
2013-01-08 20:12:00,51.0,48.0,30.19,West,271,7.0,10.0,90,0.00,,,0.00,,2013-01-08 20:12:00,
2013-01-08 20:22:00,50.0,47.0,30.19,West,269,8.0,14.0,91,0.00,,,0.00,,2013-01-08 20:22:00,
2013-01-08 20:32:00,50.0,47.0,30.19,West,269,5.0,12.0,91,0.00,,,0.00,,2013-01-08 20:32:00,
2013-01-08 20:42:00,50.0,47.0,30.19,West,269,5.0,12.0,91,0.00,,,0.00,,2013-01-08 20:42:00,
2013-01-08 20:53:00,50.0,47.0,30.19,WNW,296,6.0,12.0,91,0.00,,,0.00,,2013-01-08 20:53:00,
2013-01-08 21:02:00,50.0,47.0,30.19,WSW,252,5.0,9.0,91,0.00,,,0.00,,2013-01-08 21:02:00,
2013-01-08 21:12:00,50.0,47.0,30.19,WSW,252,5.0,9.0,91,0.00,,,0.00,,2013-01-08 21:12:00,
2013-01-08 21:22:00,50.0,48.0,30.19,West,262,5.0,8.0,92,0.00,,,0.00,,2013-01-08 21:22:00,
2013-01-08 21:32:00,50.0,48.0,30.19,WSW,250,3.0,12.0,92,0.00,,,0.00,,2013-01-08 21:32:00,
2013-01-08 21:42:00,50.0,48.0,30.19,WSW,250,3.0,12.0,92,0.00,,,0.00,,2013-01-08 21:42:00,
2013-01-08 21:53:00,49.0,47.0,30.18,West,262,6.0,9.0,93,0.00,,,0.00,,2013-01-08 21:53:00,
2013-01-08 22:02:00,49.0,47.0,30.18,West,262,6.0,9.0,93,0.00,,,0.00,,2013-01-08 22:02:00,
2013-01-08 22:12:00,49.0,47.0,30.18,West,262,6.0,9.0,93,0.00,,,0.00,,2013-01-08 22:12:00,
2013-01-08 22:22:00,49.0,47.0,30.18,WSW,258,5.0,9.0,93,0.01,,,0.01,,2013-01-08 22:22:00,
2013-01-08 22:32:00,49.0,47.0,30.18,West,266,3.0,8.0,94,0.01,,,0.01,,2013-01-08 22:32:00,
2013-01-08 22:43:00,49.0,47.0,30.18,West,266,3.0,8.0,94,0.01,,,0.01,,2013-01-08 22:43:00,
2013-01-08 22:53:00,49.0,47.0,30.18,WNW,282,3.0,8.0,94,0.02,,,0.02,,2013-01-08 22:53:00,
2013-01-08 23:02:00,49.0,47.0,30.17,WSW,257,2.0,7.0,94,0.02,,,0.02,,2013-01-08 23:02:00,
2013-01-08 23:12:00,49.0,47.0,30.17,WSW,257,2.0,7.0,94,0.02,,,0.02,,2013-01-08 23:12:00,
2013-01-08 23:22:00,48.0,46.0,30.17,West,275,6.0,8.0,94,0.02,,,0.02,,2013-01-08 23:22:00,
2013-01-08 23:32:00,48.0,46.0,30.17,WSW,258,5.0,8.0,94,0.02,,,0.02,,2013-01-08 23:32:00,
2013-01-08 23:42:00,48.0,46.0,30.17,WSW,258,5.0,8.0,94,0.02,,,0.02,,2013-01-08 23:42:00,
2013-01-08 23:53:00,48.0,46.0,30.17,WSW,255,4.0,9.0,94,0.01,,,0.02,,2013-01-08 23:53:00,